createdAt,value
2022-09-23T00:01:00.133Z,5.15
2022-09-23T00:03:29.043Z,5.16
2022-09-23T00:06:00.486Z,5.09
2022-09-23T00:08:27.252Z,5.10
2022-09-23T00:10:54.327Z,5.03
2022-09-23T00:13:20.984Z,4.85
2022-09-23T00:15:47.568Z,4.88
2022-09-23T00:18:14.280Z,4.86
2022-09-23T00:20:40.899Z,4.83
2022-09-23T00:23:07.503Z,4.80
2022-09-23T00:25:34.232Z,4.67
2022-09-23T00:28:00.943Z,4.70
2022-09-23T00:30:27.621Z,4.76
2022-09-23T00:32:54.283Z,4.66
2022-09-23T00:35:20.964Z,4.53
2022-09-23T00:37:47.632Z,4.40
2022-09-23T00:40:14.585Z,4.28
2022-09-23T00:42:49.287Z,4.21
2022-09-23T00:45:17.004Z,4.22
2022-09-23T00:47:50.460Z,4.12
2022-09-23T00:50:32.147Z,4.08
2022-09-23T00:53:01.593Z,4.17
2022-09-23T00:55:50.048Z,4.26
2022-09-23T00:58:20.224Z,4.31
2022-09-23T01:00:47.181Z,4.34
2022-09-23T01:03:14.641Z,4.17
2022-09-23T01:05:41.855Z,4.02
2022-09-23T01:08:10.658Z,3.97
2022-09-23T01:10:55.225Z,4.03
2022-09-23T01:13:29.248Z,4.03
2022-09-23T01:16:06.208Z,4.01
2022-09-23T01:18:48.009Z,3.98
2022-09-23T01:21:42.975Z,3.98
2022-09-23T01:24:33.106Z,3.88
2022-09-23T01:27:17.798Z,3.84
2022-09-23T01:29:56.937Z,3.81
2022-09-23T01:32:31.283Z,3.81
2022-09-23T01:35:17.195Z,3.67
2022-09-23T01:37:52.603Z,3.59
2022-09-23T01:40:38.614Z,3.63
2022-09-23T01:43:13.870Z,3.59
2022-09-23T01:45:46.797Z,3.63
2022-09-23T01:48:28.492Z,3.68
2022-09-23T01:51:02.232Z,3.65
2022-09-23T01:53:40.436Z,3.64
2022-09-23T01:56:15.911Z,3.58
2022-09-23T01:58:48.349Z,3.64
2022-09-23T02:01:23.372Z,3.68
2022-09-23T02:03:59.782Z,3.78
2022-09-23T02:06:33.767Z,3.66
2022-09-23T02:09:03.415Z,3.74
2022-09-23T02:11:36.167Z,3.70
2022-09-23T02:14:08.272Z,3.63
2022-09-23T02:16:41.091Z,3.60
2022-09-23T02:19:18.321Z,3.49
2022-09-23T02:21:50.077Z,3.43
2022-09-23T02:24:21.016Z,3.34
2022-09-23T02:26:54.537Z,3.22
2022-09-23T02:29:26.984Z,3.19
2022-09-23T02:32:17.922Z,3.23
2022-09-23T02:35:06.455Z,3.20
2022-09-23T02:37:48.340Z,3.26
2022-09-23T02:40:38.891Z,3.24
2022-09-23T02:43:21.307Z,3.15
2022-09-23T02:45:48.279Z,3.03
2022-09-23T02:48:25.027Z,3.10
2022-09-23T02:50:52.114Z,3.14
2022-09-23T02:53:18.747Z,2.96
2022-09-23T02:55:45.801Z,3.01
2022-09-23T02:58:13.940Z,3.04
2022-09-23T03:01:15.577Z,2.83
2022-09-23T03:03:51.705Z,2.75
2022-09-23T03:06:42.754Z,2.79
2022-09-23T03:09:14.334Z,2.72
2022-09-23T03:11:47.246Z,2.57
2022-09-23T03:14:25.849Z,2.58
2022-09-23T03:17:20.183Z,2.58
2022-09-23T03:19:55.501Z,2.56
2022-09-23T03:22:27.270Z,2.65
2022-09-23T03:24:54.303Z,2.58
2022-09-23T03:27:25.756Z,2.61
2022-09-23T03:29:53.778Z,2.63
2022-09-23T03:32:23.586Z,2.64
2022-09-23T03:34:52.508Z,2.61
2022-09-23T03:37:35.842Z,2.58
2022-09-23T03:40:17.843Z,2.54
2022-09-23T03:42:44.518Z,2.40
2022-09-23T03:45:17.166Z,2.48
2022-09-23T03:47:44.126Z,2.37
2022-09-23T03:50:13.477Z,2.48
2022-09-23T03:52:52.113Z,2.44
2022-09-23T03:55:19.479Z,2.42
2022-09-23T03:57:46.281Z,2.31
2022-09-23T04:00:13.977Z,2.46
2022-09-23T04:02:41.125Z,2.52
2022-09-23T04:05:08.992Z,2.50
2022-09-23T04:07:35.610Z,2.37
2022-09-23T04:10:02.251Z,2.36
2022-09-23T04:12:28.888Z,2.43
2022-09-23T04:14:55.529Z,2.42
2022-09-23T04:17:22.159Z,2.39
2022-09-23T04:19:48.757Z,2.33
2022-09-23T04:22:15.409Z,2.37
2022-09-23T04:24:42.047Z,2.38
2022-09-23T04:27:08.749Z,2.36
2022-09-23T04:29:35.537Z,2.33
2022-09-23T04:32:02.366Z,2.34
2022-09-23T04:34:29.013Z,2.43
2022-09-23T04:36:55.616Z,2.46
2022-09-23T04:39:22.271Z,2.44
2022-09-23T04:41:48.881Z,2.45
2022-09-23T04:44:15.645Z,2.43
2022-09-23T04:46:43.905Z,2.40
2022-09-23T04:49:10.882Z,2.34
2022-09-23T04:51:37.580Z,2.27
2022-09-23T04:54:04.341Z,2.39
2022-09-23T04:56:34.028Z,2.29
2022-09-23T04:59:01.925Z,2.27
2022-09-23T05:01:31.550Z,2.04
2022-09-23T05:04:05.774Z,2.03
2022-09-23T05:06:35.044Z,1.91
2022-09-23T05:09:02.783Z,1.96
2022-09-23T05:11:30.908Z,2.01
2022-09-23T05:13:57.538Z,1.93
2022-09-23T05:16:25.054Z,1.90
2022-09-23T05:18:52.546Z,1.89
2022-09-23T05:21:21.946Z,1.85
2022-09-23T05:23:52.467Z,1.89
2022-09-23T05:26:19.108Z,1.90
2022-09-23T05:28:45.758Z,1.92
2022-09-23T05:31:19.400Z,1.95
2022-09-23T05:33:52.257Z,2.07
2022-09-23T05:36:22.189Z,2.06
2022-09-23T05:38:50.212Z,1.89
2022-09-23T05:41:17.737Z,1.82
2022-09-23T05:43:44.615Z,1.79
2022-09-23T05:46:13.924Z,1.89
2022-09-23T05:48:42.028Z,1.86
2022-09-23T05:51:12.914Z,1.90
2022-09-23T05:53:40.803Z,1.96
2022-09-23T05:56:07.734Z,1.91
2022-09-23T05:58:34.656Z,1.95
2022-09-23T06:01:01.352Z,1.94
2022-09-23T06:03:28.181Z,1.94
2022-09-23T06:05:55.728Z,2.07
2022-09-23T06:08:23.133Z,2.11
2022-09-23T06:10:54.368Z,2.28
2022-09-23T06:13:21.336Z,2.32
2022-09-23T06:15:47.989Z,2.27
2022-09-23T06:18:14.635Z,2.36
2022-09-23T06:20:41.288Z,2.39
2022-09-23T06:23:10.624Z,2.48
2022-09-23T06:25:40.816Z,2.56
2022-09-23T06:28:10.879Z,2.71
2022-09-23T06:30:37.603Z,2.73
2022-09-23T06:33:04.265Z,2.74
2022-09-23T06:35:33.281Z,2.90
2022-09-23T06:38:03.448Z,3.07
2022-09-23T06:40:31.252Z,3.17
2022-09-23T06:43:01.749Z,3.29
2022-09-23T06:45:29.045Z,3.43
2022-09-23T06:47:57.169Z,3.52
2022-09-23T06:50:27.406Z,3.62
2022-09-23T06:52:56.412Z,3.69
2022-09-23T06:55:24.685Z,3.81
2022-09-23T06:57:51.417Z,3.90
2022-09-23T07:00:18.515Z,4.03
2022-09-23T07:02:45.678Z,4.08
2022-09-23T07:05:12.543Z,4.11
2022-09-23T07:07:39.512Z,4.24
2022-09-23T07:10:07.277Z,4.38
2022-09-23T07:12:34.428Z,4.48
2022-09-23T07:15:01.067Z,4.65
2022-09-23T07:17:27.932Z,4.84
2022-09-23T07:19:57.467Z,4.93
2022-09-23T07:22:25.232Z,5.08
2022-09-23T07:24:52.390Z,5.30
2022-09-23T07:27:20.106Z,5.47
2022-09-23T07:29:50.648Z,5.62
2022-09-23T07:32:17.641Z,5.88
2022-09-23T07:34:44.605Z,6.09
2022-09-23T07:37:11.227Z,6.18
2022-09-23T07:39:39.781Z,6.41
2022-09-23T07:42:06.548Z,6.66
2022-09-23T07:44:33.624Z,6.81
2022-09-23T07:47:00.610Z,7.02
2022-09-23T07:49:27.751Z,7.26
2022-09-23T07:51:54.480Z,7.32
2022-09-23T07:54:21.183Z,7.61
2022-09-23T07:56:48.114Z,7.91
2022-09-23T07:59:18.398Z,8.38
2022-09-23T08:01:48.525Z,8.58
2022-09-23T08:04:32.830Z,8.62
2022-09-23T08:07:01.877Z,8.89
2022-09-23T08:09:34.464Z,9.16
2022-09-23T08:12:01.462Z,9.45
2022-09-23T08:14:28.197Z,9.80
2022-09-23T08:16:54.834Z,9.94
2022-09-23T08:19:21.585Z,10.26
2022-09-23T08:21:48.281Z,10.46
2022-09-23T08:24:17.202Z,10.57
2022-09-23T08:26:48.169Z,10.59
2022-09-23T08:29:16.710Z,10.90
2022-09-23T08:31:43.768Z,10.80
2022-09-23T08:34:10.654Z,11.10
2022-09-23T08:36:37.408Z,11.34
2022-09-23T08:39:05.128Z,11.60
2022-09-23T08:41:36.461Z,11.78
2022-09-23T08:44:05.288Z,11.91
2022-09-23T08:46:35.899Z,12.14
2022-09-23T08:49:02.550Z,12.24
2022-09-23T08:51:35.974Z,11.94
2022-09-23T08:54:02.781Z,12.26
2022-09-23T08:56:30.697Z,12.19
2022-09-23T08:59:00.206Z,12.41
2022-09-23T09:01:52.630Z,12.71
2022-09-23T09:04:28.018Z,12.92
2022-09-23T09:07:31.752Z,12.82
2022-09-23T09:10:11.906Z,13.11
2022-09-23T09:12:52.769Z,13.22
2022-09-23T09:15:27.445Z,13.22
2022-09-23T09:18:01.330Z,13.23
2022-09-23T09:20:45.656Z,13.41
2022-09-23T09:23:22.905Z,13.59
2022-09-23T09:25:51.415Z,13.61
2022-09-23T09:28:36.432Z,13.62
2022-09-23T09:31:15.847Z,13.67
2022-09-23T09:33:51.615Z,13.85
2022-09-23T09:36:23.887Z,13.93
2022-09-23T09:38:51.326Z,14.08
2022-09-23T09:41:21.411Z,14.30
2022-09-23T09:43:57.691Z,14.56
2022-09-23T09:46:29.453Z,14.48
2022-09-23T09:48:57.114Z,14.71
2022-09-23T09:51:25.256Z,14.77
2022-09-23T09:53:55.801Z,14.90
2022-09-23T09:56:31.319Z,14.87
2022-09-23T09:59:06.702Z,15.02
2022-09-23T10:01:34.993Z,15.35
2022-09-23T10:04:04.370Z,15.61
2022-09-23T10:06:33.750Z,15.52
2022-09-23T10:09:13.983Z,15.90
2022-09-23T10:11:41.718Z,15.94
2022-09-23T10:14:20.383Z,16.16
2022-09-23T10:16:49.034Z,16.31
2022-09-23T10:19:26.514Z,16.43
2022-09-23T10:21:58.761Z,16.42
2022-09-23T10:24:30.536Z,16.77
2022-09-23T10:27:09.032Z,16.77
2022-09-23T10:29:47.875Z,16.93
2022-09-23T10:32:30.202Z,16.98
2022-09-23T10:35:03.905Z,17.17
2022-09-23T10:37:32.670Z,17.28
2022-09-23T10:40:18.876Z,17.05
2022-09-23T10:43:17.181Z,17.22
2022-09-23T10:46:07.065Z,17.27
2022-09-23T10:48:51.590Z,17.37
2022-09-23T10:51:46.882Z,17.75
2022-09-23T10:54:25.374Z,17.93
2022-09-23T10:57:00.709Z,18.14
2022-09-23T10:59:28.067Z,18.42
2022-09-23T11:02:40.167Z,18.81
2022-09-23T11:05:18.807Z,18.97
2022-09-23T11:07:45.360Z,18.91
2022-09-23T11:10:48.859Z,19.21
2022-09-23T11:13:44.463Z,19.42
2022-09-23T11:16:37.260Z,19.34
2022-09-23T11:19:45.895Z,19.65
2022-09-23T11:22:36.275Z,19.74
2022-09-23T11:25:28.644Z,19.89
2022-09-23T11:28:21.547Z,19.81
2022-09-23T11:30:51.021Z,19.71
2022-09-23T11:33:46.617Z,19.84
2022-09-23T11:36:24.860Z,19.74
2022-09-23T11:38:52.596Z,20.19
2022-09-23T11:41:39.102Z,20.54
2022-09-23T11:44:18.097Z,20.84
2022-09-23T11:46:52.869Z,20.79
2022-09-23T11:49:32.678Z,20.00
2022-09-23T11:52:06.501Z,20.46
2022-09-23T11:54:54.405Z,20.61
2022-09-23T11:57:25.564Z,20.62
2022-09-23T11:59:56.608Z,20.60
2022-09-23T12:02:30.915Z,20.81
2022-09-23T12:05:03.227Z,21.00
2022-09-23T12:07:46.978Z,21.32
2022-09-23T12:10:14.461Z,20.86
2022-09-23T12:13:06.553Z,19.89
2022-09-23T12:16:10.729Z,20.58
2022-09-23T12:19:01.088Z,21.05
2022-09-23T12:21:51.000Z,21.32
2022-09-23T12:24:48.192Z,21.09
2022-09-23T12:27:29.726Z,21.52
2022-09-23T12:30:06.247Z,21.90
2022-09-23T12:32:33.265Z,21.95
2022-09-23T12:35:00.607Z,22.12
2022-09-23T12:37:35.670Z,22.33
2022-09-23T12:40:09.462Z,22.08
2022-09-23T12:42:41.575Z,21.87
2022-09-23T12:45:28.266Z,22.22
2022-09-23T12:47:54.976Z,22.05
2022-09-23T12:50:50.905Z,22.57
2022-09-23T12:53:54.981Z,22.77
2022-09-23T12:56:29.891Z,22.56
2022-09-23T12:59:01.394Z,22.89
2022-09-23T13:01:28.730Z,23.14
2022-09-23T13:04:15.828Z,23.45
2022-09-23T13:06:43.384Z,23.06
2022-09-23T13:09:24.938Z,22.62
2022-09-23T13:11:52.962Z,22.52
2022-09-23T13:14:27.387Z,22.82
2022-09-23T13:16:56.228Z,23.20
2022-09-23T13:19:25.876Z,23.12
2022-09-23T13:22:09.265Z,23.05
2022-09-23T13:24:42.109Z,22.39
2022-09-23T13:27:11.681Z,22.92
2022-09-23T13:29:45.237Z,23.02
2022-09-23T13:32:19.333Z,23.33
2022-09-23T13:34:58.262Z,23.65
2022-09-23T13:37:49.794Z,23.23
2022-09-23T13:40:18.212Z,23.71
2022-09-23T13:42:48.442Z,23.31
2022-09-23T13:45:22.884Z,22.99
2022-09-23T13:47:50.253Z,23.60
2022-09-23T13:50:19.838Z,23.72
2022-09-23T13:52:51.554Z,23.53
2022-09-23T13:55:38.992Z,23.50
2022-09-23T13:58:35.506Z,23.19
2022-09-23T14:01:02.611Z,23.01
2022-09-23T14:03:37.136Z,23.47
2022-09-23T14:06:15.363Z,23.42
2022-09-23T14:08:47.887Z,23.59
2022-09-23T14:11:18.959Z,23.65
2022-09-23T14:13:47.305Z,23.60
2022-09-23T14:16:15.697Z,23.52
2022-09-23T14:18:47.361Z,23.30
2022-09-23T14:21:36.010Z,23.03
2022-09-23T14:24:24.184Z,22.44
2022-09-23T14:26:56.887Z,22.37
2022-09-23T14:29:29.484Z,22.26
2022-09-23T14:32:00.285Z,22.27
2022-09-23T14:34:48.490Z,22.39
2022-09-23T14:37:56.378Z,22.36
2022-09-23T14:40:32.065Z,22.33
2022-09-23T14:43:05.707Z,22.32
2022-09-23T14:45:37.748Z,22.13
2022-09-23T14:48:10.470Z,22.05
2022-09-23T14:50:37.227Z,21.91
2022-09-23T14:53:04.707Z,21.62
2022-09-23T14:55:31.577Z,21.55
2022-09-23T14:58:04.767Z,21.15
2022-09-23T15:00:31.670Z,21.37
2022-09-23T15:03:03.606Z,21.68
2022-09-23T15:05:39.054Z,21.22
2022-09-23T15:08:06.359Z,21.17
2022-09-23T15:10:37.621Z,21.24
2022-09-23T15:13:09.590Z,21.20
2022-09-23T15:15:36.482Z,21.19
2022-09-23T15:18:05.482Z,20.65
2022-09-23T15:20:32.367Z,20.94
2022-09-23T15:22:59.004Z,20.76
2022-09-23T15:25:28.204Z,21.03
2022-09-23T15:28:03.345Z,20.91
2022-09-23T15:30:30.717Z,20.70
2022-09-23T15:32:57.441Z,20.69
2022-09-23T15:35:27.805Z,20.80
2022-09-23T15:37:58.295Z,20.76
2022-09-23T15:40:36.357Z,20.95
2022-09-23T15:43:20.991Z,20.75
2022-09-23T15:45:53.314Z,20.62
2022-09-23T15:48:26.203Z,20.59
2022-09-23T15:50:54.422Z,20.61
2022-09-23T15:53:24.057Z,20.59
2022-09-23T15:55:51.725Z,20.50
2022-09-23T15:58:19.294Z,20.52
2022-09-23T16:00:47.880Z,20.49
2022-09-23T16:03:16.681Z,20.22
2022-09-23T16:05:46.942Z,20.03
2022-09-23T16:08:14.696Z,19.92
2022-09-23T16:10:42.485Z,19.93
2022-09-23T16:13:13.861Z,19.85
2022-09-23T16:15:41.442Z,19.74
2022-09-23T16:18:09.489Z,19.64
2022-09-23T16:20:38.830Z,19.52
2022-09-23T16:23:18.454Z,19.26
2022-09-23T16:25:45.052Z,19.16
2022-09-23T16:28:11.669Z,19.02
2022-09-23T16:30:38.344Z,18.90
2022-09-23T16:33:04.945Z,18.74
2022-09-23T16:35:33.695Z,18.65
2022-09-23T16:38:00.289Z,18.41
2022-09-23T16:40:27.079Z,18.20
2022-09-23T16:42:55.100Z,18.15
2022-09-23T16:45:23.199Z,18.12
2022-09-23T16:47:54.432Z,17.92
2022-09-23T16:50:22.833Z,17.74
2022-09-23T16:52:55.266Z,17.61
2022-09-23T16:55:22.568Z,17.55
2022-09-23T16:57:49.197Z,17.50
2022-09-23T17:00:35.108Z,17.41
2022-09-23T17:03:22.725Z,17.27
2022-09-23T17:05:49.840Z,17.10
2022-09-23T17:08:17.704Z,17.04
2022-09-23T17:10:46.066Z,16.95
2022-09-23T17:13:15.694Z,16.83
2022-09-23T17:15:44.128Z,16.53
2022-09-23T17:18:10.785Z,16.54
2022-09-23T17:20:38.777Z,16.47
2022-09-23T17:23:06.054Z,16.35
2022-09-23T17:25:34.116Z,16.17
2022-09-23T17:28:01.009Z,16.16
2022-09-23T17:30:28.902Z,16.00
2022-09-23T17:32:55.509Z,15.87
2022-09-23T17:35:22.155Z,15.78
2022-09-23T17:37:48.852Z,15.71
2022-09-23T17:40:15.706Z,15.60
2022-09-23T17:42:42.543Z,15.36
2022-09-23T17:45:12.522Z,15.32
2022-09-23T17:47:41.922Z,15.29
2022-09-23T17:50:08.835Z,15.19
2022-09-23T17:52:35.467Z,15.12
2022-09-23T17:55:02.381Z,15.03
2022-09-23T17:57:28.972Z,14.89
2022-09-23T17:59:56.193Z,14.70
2022-09-23T18:02:22.952Z,14.70
2022-09-23T18:04:49.864Z,14.66
2022-09-23T18:07:16.506Z,14.43
2022-09-23T18:09:43.153Z,14.39
2022-09-23T18:12:09.840Z,14.36
2022-09-23T18:14:36.468Z,14.16
2022-09-23T18:17:03.122Z,14.17
2022-09-23T18:19:29.766Z,14.04
2022-09-23T18:21:57.383Z,14.00
2022-09-23T18:24:33.171Z,13.91
2022-09-23T18:27:00.995Z,13.89
2022-09-23T18:29:27.652Z,13.65
2022-09-23T18:31:54.546Z,13.62
2022-09-23T18:34:21.465Z,13.67
2022-09-23T18:36:48.241Z,13.62
2022-09-23T18:39:14.972Z,13.61
2022-09-23T18:41:41.589Z,13.51
2022-09-23T18:44:08.827Z,13.41
2022-09-23T18:46:35.675Z,13.35
2022-09-23T18:49:21.420Z,13.28
2022-09-23T18:51:50.539Z,13.17
2022-09-23T18:54:17.137Z,13.23
2022-09-23T18:56:44.742Z,13.24
2022-09-23T18:59:14.597Z,13.09
2022-09-23T19:01:41.308Z,13.02
2022-09-23T19:04:08.333Z,12.97
2022-09-23T19:06:35.609Z,13.04
2022-09-23T19:09:02.347Z,13.01
2022-09-23T19:11:28.973Z,12.95
2022-09-23T19:13:58.033Z,12.89
2022-09-23T19:16:25.910Z,12.89
2022-09-23T19:18:53.570Z,12.85
2022-09-23T19:21:22.360Z,12.63
2022-09-23T19:23:54.050Z,12.68
2022-09-23T19:26:23.875Z,12.58
2022-09-23T19:28:55.561Z,12.49
2022-09-23T19:31:38.602Z,12.56
2022-09-23T19:34:10.225Z,12.47
2022-09-23T19:36:38.996Z,12.44
2022-09-23T19:39:08.605Z,12.41
2022-09-23T19:41:35.580Z,12.33
2022-09-23T19:44:03.434Z,12.34
2022-09-23T19:46:33.619Z,12.17
2022-09-23T19:49:00.799Z,12.23
2022-09-23T19:51:28.377Z,12.23
2022-09-23T19:53:55.006Z,12.18
2022-09-23T19:56:21.788Z,12.11
2022-09-23T19:58:54.285Z,12.10
2022-09-23T20:01:22.322Z,12.10
2022-09-23T20:03:49.759Z,12.03
2022-09-23T20:06:17.194Z,11.96
2022-09-23T20:08:44.610Z,11.98
2022-09-23T20:11:27.609Z,11.93
2022-09-23T20:14:01.841Z,11.92
2022-09-23T20:16:37.048Z,11.87
2022-09-23T20:19:04.952Z,11.77
2022-09-23T20:21:32.076Z,11.87
2022-09-23T20:23:58.978Z,11.80
2022-09-23T20:26:44.524Z,11.88
2022-09-23T20:29:11.411Z,11.72
2022-09-23T20:31:40.413Z,11.69
2022-09-23T20:34:08.381Z,11.77
2022-09-23T20:36:36.100Z,11.77
2022-09-23T20:39:06.012Z,11.68
2022-09-23T20:41:36.810Z,11.65
2022-09-23T20:44:06.293Z,11.55
2022-09-23T20:46:33.206Z,11.60
2022-09-23T20:48:59.973Z,11.56
2022-09-23T20:51:26.749Z,11.57
2022-09-23T20:53:53.409Z,11.53
2022-09-23T20:56:21.378Z,11.44
2022-09-23T20:58:48.756Z,11.46
2022-09-23T21:01:15.977Z,11.34
2022-09-23T21:03:44.901Z,11.43
2022-09-23T21:06:13.992Z,11.29
2022-09-23T21:08:41.742Z,11.27
2022-09-23T21:11:11.721Z,11.18
2022-09-23T21:13:38.802Z,11.13
2022-09-23T21:16:08.314Z,11.12
2022-09-23T21:18:38.155Z,11.13
2022-09-23T21:21:05.964Z,11.18
2022-09-23T21:23:38.300Z,11.18
2022-09-23T21:26:12.925Z,11.15
2022-09-23T21:28:42.288Z,11.20
2022-09-23T21:31:17.764Z,11.20
2022-09-23T21:33:44.418Z,11.10
2022-09-23T21:36:11.016Z,11.05
2022-09-23T21:38:37.999Z,10.93
2022-09-23T21:41:07.234Z,10.89
2022-09-23T21:43:35.548Z,10.78
2022-09-23T21:46:04.829Z,10.75
2022-09-23T21:48:33.691Z,10.85
2022-09-23T21:51:05.761Z,10.89
2022-09-23T21:53:33.778Z,10.78
2022-09-23T21:56:19.574Z,10.75
2022-09-23T21:58:47.526Z,10.82
2022-09-23T22:01:19.564Z,10.83
2022-09-23T22:03:52.699Z,10.78
2022-09-23T22:06:22.526Z,10.78
2022-09-23T22:08:51.306Z,10.72
2022-09-23T22:11:41.620Z,10.73
2022-09-23T22:14:10.999Z,10.66
2022-09-23T22:16:38.540Z,10.53
2022-09-23T22:19:06.947Z,10.42
2022-09-23T22:21:35.756Z,10.45
2022-09-23T22:24:03.852Z,10.40
2022-09-23T22:26:38.493Z,10.61
2022-09-23T22:29:25.638Z,10.67
2022-09-23T22:32:11.341Z,10.57
2022-09-23T22:34:49.631Z,10.49
2022-09-23T22:37:25.696Z,10.57
2022-09-23T22:39:52.949Z,10.61
2022-09-23T22:42:22.561Z,10.53
2022-09-23T22:44:49.923Z,10.48
2022-09-23T22:47:18.181Z,10.48
2022-09-23T22:49:46.285Z,10.52
2022-09-23T22:52:14.999Z,10.41
2022-09-23T22:54:41.857Z,10.39
2022-09-23T22:57:09.221Z,10.35
2022-09-23T22:59:36.021Z,10.23
2022-09-23T23:02:03.362Z,10.19
2022-09-23T23:04:30.261Z,10.21
2022-09-23T23:06:58.627Z,10.25
2022-09-23T23:09:25.289Z,10.23
2022-09-23T23:11:51.924Z,10.08
2022-09-23T23:14:18.989Z,10.07
2022-09-23T23:16:46.223Z,10.01
2022-09-23T23:19:16.480Z,9.97
2022-09-23T23:21:43.745Z,9.98
2022-09-23T23:24:15.493Z,10.07
2022-09-23T23:26:42.850Z,10.02
2022-09-23T23:29:11.127Z,9.90
2022-09-23T23:31:37.984Z,9.76
2022-09-23T23:34:05.295Z,9.82
2022-09-23T23:36:31.926Z,9.80
2022-09-23T23:38:58.705Z,9.79
2022-09-23T23:41:25.297Z,9.76
2022-09-23T23:43:57.156Z,9.91
2022-09-23T23:46:28.338Z,9.87
2022-09-23T23:48:55.826Z,9.98
2022-09-23T23:51:23.365Z,10.03
2022-09-23T23:53:50.104Z,9.99
2022-09-23T23:56:18.744Z,9.85
2022-09-23T23:58:45.451Z,9.93
